Time;durP1;ratioP1;P1;durP2;ratioP2;P2;SDS_P1;SDS_P2;PMS_P1;PMS_P2;Temp;Humidity;BMP_temperature;BMP_pressure;BME280_temperature;BME280_humidity;BME280_pressure;Samples;Min_cycle;Max_cycle;Signal;HPM_P1;HPM_P2
2022/05/10 00:02:20;;;;;;;;;;;11.90;99.90;;;;;;5157204;27;19946;-75
2022/05/10 00:04:48;;;;;;;;;;;11.90;99.90;;;;;;5157317;27;20026;-75
2022/05/10 00:07:14;;;;;;;;;;;11.90;99.90;;;;;;5156709;27;20348;-75
2022/05/10 00:09:40;;;;;;;;;;;11.90;99.90;;;;;;5157107;27;19932;-75
2022/05/10 00:12:05;;;;;;;;;;;11.90;99.90;;;;;;5156613;27;19907;-75
2022/05/10 00:14:31;;;;;;;;;;;11.90;99.90;;;;;;5157111;27;19993;-75
2022/05/10 00:16:57;;;;;;;;;;;11.90;99.90;;;;;;5156512;27;19921;-75
2022/05/10 00:19:23;;;;;;;;;;;11.90;99.90;;;;;;5137147;27;19922;-75
2022/05/10 00:21:49;;;;;;;;;;;11.90;99.90;;;;;;5156785;27;20010;-75
2022/05/10 00:24:15;;;;;;;;;;;11.90;99.90;;;;;;5156311;27;19911;-75
2022/05/10 00:26:40;;;;;;;;;;;11.90;99.90;;;;;;5156605;27;19930;-75
2022/05/10 00:29:06;;;;;;;;;;;11.80;99.90;;;;;;5156124;27;19933;-75
2022/05/10 00:31:32;;;;;;;;;;;11.80;99.90;;;;;;5156615;27;20253;-75
2022/05/10 00:33:58;;;;;;;;;;;11.80;99.90;;;;;;5156146;27;19914;-75
2022/05/10 00:36:24;;;;;;;;;;;11.80;99.90;;;;;;5156541;27;19918;-75
2022/05/10 00:38:50;;;;;;;;;;;11.80;99.90;;;;;;5156553;27;20267;-75
2022/05/10 00:41:39;;;;;;;;;;;11.80;99.90;;;;;;5155625;27;19907;-75
2022/05/10 00:44:08;;;;;;;;;;;11.80;99.90;;;;;;5156005;27;20417;-75
2022/05/10 00:46:45;;;;;;;;;;;11.70;99.90;;;;;;5156472;27;19911;-75
2022/05/10 00:49:28;;;;;;;;;;;11.80;99.90;;;;;;5155602;27;19911;-75
2022/05/10 00:52:03;;;;;;;;;;;11.80;99.90;;;;;;5156421;27;19913;-75
2022/05/10 00:54:52;;;;;;;;;;;11.90;99.90;;;;;;5155891;27;20279;-75
2022/05/10 00:57:40;;;;;;;;;;;11.90;99.90;;;;;;5141126;27;19919;-75
2022/05/10 01:00:06;;;;;;;;;;;11.80;99.90;;;;;;5155428;27;19982;-75
2022/05/10 01:02:47;;;;;;;;;;;11.80;99.90;;;;;;5155801;27;19911;-75
2022/05/10 01:05:18;;;;;;;;;;;11.70;99.90;;;;;;5155359;27;20355;-75
2022/05/10 01:07:52;;;;;;;;;;;11.80;99.90;;;;;;5155757;27;19907;-75
2022/05/10 01:10:39;;;;;;;;;;;11.80;99.90;;;;;;5155323;27;19912;-75
2022/05/10 01:13:27;;;;;;;;;;;11.80;99.90;;;;;;5155184;27;19907;-75
2022/05/10 01:16:31;;;;;;;;;;;11.70;99.90;;;;;;5155610;27;19908;-75
2022/05/10 01:18:57;;;;;;;;;;;11.70;99.90;;;;;;5050626;28;20364;-75
2022/05/10 01:21:31;;;;;;;;;;;11.60;99.90;;;;;;5051048;28;19909;-75
2022/05/10 01:24:21;;;;;;;;;;;11.60;99.90;;;;;;5051150;28;19908;-75
2022/05/10 01:26:46;;;;;;;;;;;11.60;99.90;;;;;;5023847;28;20003;-75
2022/05/10 01:29:20;;;;;;;;;;;11.60;99.90;;;;;;5050404;28;19996;-75
2022/05/10 01:33:29;;;;;;;;;;;11.60;99.90;;;;;;5051012;28;19913;-75
2022/05/10 01:34:34;;;;;;;;;;;11.60;99.90;;;;;;5051074;28;19944;-75
2022/05/10 01:37:00;;;;;;;;;;;11.60;99.90;;;;;;5050694;28;20382;-75
2022/05/10 01:39:46;;;;;;;;;;;11.50;99.90;;;;;;5051135;28;20038;-75
2022/05/10 01:42:12;;;;;;;;;;;11.60;99.90;;;;;;5049812;28;19909;-75
2022/05/10 01:44:41;;;;;;;;;;;11.60;99.90;;;;;;5050959;28;19916;-75
2022/05/10 01:47:12;;;;;;;;;;;11.60;99.90;;;;;;5033504;28;19920;-75
2022/05/10 01:49:42;;;;;;;;;;;11.50;99.90;;;;;;5100037;27;20024;-75
2022/05/10 01:52:14;;;;;;;;;;;11.60;99.90;;;;;;5154422;27;19932;-75
2022/05/10 01:54:39;;;;;;;;;;;11.60;99.90;;;;;;5155078;27;20051;-75
2022/05/10 01:57:09;;;;;;;;;;;11.50;99.90;;;;;;5154482;27;20372;-75
2022/05/10 01:59:37;;;;;;;;;;;11.50;99.90;;;;;;5155071;27;20015;-76
2022/05/10 02:02:03;;;;;;;;;;;11.50;99.90;;;;;;5154350;27;19910;-75
2022/05/10 02:04:31;;;;;;;;;;;11.50;99.90;;;;;;5155040;27;19998;-75
2022/05/10 02:07:04;;;;;;;;;;;11.50;99.90;;;;;;5154753;27;19911;-75
2022/05/10 02:09:30;;;;;;;;;;;11.50;99.90;;;;;;5154640;27;19907;-75
2022/05/10 02:11:58;;;;;;;;;;;11.50;99.90;;;;;;5154867;27;19918;-75
2022/05/10 02:14:28;;;;;;;;;;;11.50;99.90;;;;;;5154248;27;20026;-75
2022/05/10 02:16:53;;;;;;;;;;;11.50;99.90;;;;;;5154432;27;19907;-75
2022/05/10 02:19:28;;;;;;;;;;;11.40;99.90;;;;;;5153896;27;19922;-75
2022/05/10 02:21:56;;;;;;;;;;;11.50;99.90;;;;;;5154682;27;19915;-75
2022/05/10 02:24:24;;;;;;;;;;;11.40;99.90;;;;;;5154091;27;19903;-75
2022/05/10 02:26:52;;;;;;;;;;;11.40;99.90;;;;;;5154782;27;19921;-75
2022/05/10 02:29:20;;;;;;;;;;;11.40;99.90;;;;;;5153882;27;19929;-75
2022/05/10 02:34:35;;;;;;;;;;;11.40;99.90;;;;;;5154684;27;19928;-75
2022/05/10 02:37:00;;;;;;;;;;;11.40;99.90;;;;;;5154280;27;19921;-76
2022/05/10 02:39:26;;;;;;;;;;;11.40;99.90;;;;;;5153760;27;20026;-75
2022/05/10 02:41:52;;;;;;;;;;;11.40;99.90;;;;;;5154489;27;19914;-76
2022/05/10 02:44:18;;;;;;;;;;;11.40;99.90;;;;;;5157951;27;19999;-76
2022/05/10 02:46:43;;;;;;;;;;;11.40;99.90;;;;;;5158443;27;20379;-76
2022/05/10 02:49:09;;;;;;;;;;;11.30;99.90;;;;;;5157943;27;19907;-76
2022/05/10 02:51:35;;;;;;;;;;;11.40;99.90;;;;;;5158290;27;19914;-75
2022/05/10 02:54:00;;;;;;;;;;;11.30;99.90;;;;;;5158496;27;19914;-75
2022/05/10 02:56:27;;;;;;;;;;;11.40;99.90;;;;;;5157899;27;19938;-75
2022/05/10 02:59:10;;;;;;;;;;;11.40;99.90;;;;;;5122833;27;19920;-75
2022/05/10 03:01:54;;;;;;;;;;;11.30;99.90;;;;;;5116963;28;19998;-75
2022/05/10 03:04:20;;;;;;;;;;;11.30;99.90;;;;;;5116479;28;19908;-75
2022/05/10 03:06:48;;;;;;;;;;;11.40;99.90;;;;;;5098688;28;19915;-76
2022/05/10 03:09:14;;;;;;;;;;;11.40;99.90;;;;;;5116444;28;19939;-76
2022/05/10 03:11:40;;;;;;;;;;;11.30;99.90;;;;;;5117195;28;19908;-76
2022/05/10 03:14:07;;;;;;;;;;;11.40;99.90;;;;;;5116447;28;20283;-75
2022/05/10 03:16:33;;;;;;;;;;;11.30;99.90;;;;;;5117005;28;20315;-76
2022/05/10 03:18:59;;;;;;;;;;;11.30;99.90;;;;;;5116414;28;19920;-75
2022/05/10 03:21:25;;;;;;;;;;;11.30;99.90;;;;;;5115851;28;19915;-75
2022/05/10 03:23:50;;;;;;;;;;;11.30;99.90;;;;;;5116355;28;19911;-75
2022/05/10 03:26:21;;;;;;;;;;;11.30;99.90;;;;;;5115552;28;19973;-75
2022/05/10 03:28:46;;;;;;;;;;;11.20;99.90;;;;;;5116379;28;19947;-75
2022/05/10 03:31:13;;;;;;;;;;;11.20;99.90;;;;;;5115605;28;19943;-75
2022/05/10 03:33:39;;;;;;;;;;;11.20;99.90;;;;;;5116337;28;19908;-75
2022/05/10 03:36:05;;;;;;;;;;;11.20;99.90;;;;;;5135995;27;19994;-76
2022/05/10 03:38:30;;;;;;;;;;;11.10;99.90;;;;;;5137033;27;19985;-76
2022/05/10 03:40:56;;;;;;;;;;;11.10;99.90;;;;;;5118873;27;19915;-75
2022/05/10 03:43:21;;;;;;;;;;;11.10;99.90;;;;;;5136442;27;19955;-76
2022/05/10 03:45:47;;;;;;;;;;;11.10;99.90;;;;;;5136987;27;19907;-76
2022/05/10 03:48:13;;;;;;;;;;;11.00;99.90;;;;;;5136390;27;19914;-76
2022/05/10 03:50:38;;;;;;;;;;;11.00;99.90;;;;;;5136595;27;19908;-76
2022/05/10 03:53:04;;;;;;;;;;;11.00;99.90;;;;;;5136680;27;19907;-76
2022/05/10 03:55:30;;;;;;;;;;;11.00;99.90;;;;;;5136243;27;19919;-76
2022/05/10 03:57:56;;;;;;;;;;;11.10;99.90;;;;;;5144011;27;20249;-76
2022/05/10 04:00:23;;;;;;;;;;;11.10;99.90;;;;;;5156697;27;19907;-75
2022/05/10 04:02:49;;;;;;;;;;;11.10;99.90;;;;;;5157110;27;19914;-76
2022/05/10 04:05:15;;;;;;;;;;;11.10;99.90;;;;;;5156527;27;19994;-75
2022/05/10 04:07:40;;;;;;;;;;;11.10;99.90;;;;;;5157402;27;20356;-76
2022/05/10 04:10:08;;;;;;;;;;;11.10;99.90;;;;;;5157230;27;19911;-76
2022/05/10 04:12:34;;;;;;;;;;;11.00;99.90;;;;;;5156767;27;19911;-76
2022/05/10 04:15:00;;;;;;;;;;;11.10;99.90;;;;;;5156961;27;19951;-76
2022/05/10 04:17:26;;;;;;;;;;;11.10;99.90;;;;;;5156498;27;19915;-76
2022/05/10 04:19:51;;;;;;;;;;;11.00;99.90;;;;;;5157059;27;20391;-76
2022/05/10 04:22:17;;;;;;;;;;;11.10;99.90;;;;;;5156360;27;19940;-76
2022/05/10 04:24:42;;;;;;;;;;;11.10;99.90;;;;;;5156902;27;19907;-76
2022/05/10 04:27:08;;;;;;;;;;;11.00;99.90;;;;;;5156849;27;19908;-76
2022/05/10 04:29:34;;;;;;;;;;;11.00;99.90;;;;;;5156491;27;20271;-76
2022/05/10 04:31:59;;;;;;;;;;;11.10;99.90;;;;;;5157204;27;20382;-76
2022/05/10 04:34:25;;;;;;;;;;;11.10;99.90;;;;;;5137528;27;19929;-76
2022/05/10 04:36:50;;;;;;;;;;;11.10;99.90;;;;;;5156673;27;19914;-76
2022/05/10 04:39:16;;;;;;;;;;;11.10;99.90;;;;;;5155976;27;19919;-76
2022/05/10 04:41:47;;;;;;;;;;;11.10;99.90;;;;;;5156547;27;19907;-76
2022/05/10 04:44:13;;;;;;;;;;;11.00;99.90;;;;;;5156213;27;19911;-76
2022/05/10 04:46:40;;;;;;;;;;;11.10;99.90;;;;;;5156157;27;20435;-76
2022/05/10 04:49:06;;;;;;;;;;;11.00;99.90;;;;;;5156499;27;20351;-76
2022/05/10 04:51:33;;;;;;;;;;;11.00;99.90;;;;;;5155734;27;19918;-76
2022/05/10 04:53:59;;;;;;;;;;;11.10;99.90;;;;;;5156233;27;19959;-76
2022/05/10 04:56:24;;;;;;;;;;;11.10;99.90;;;;;;5155650;27;19911;-76
2022/05/10 04:58:54;;;;;;;;;;;11.00;99.90;;;;;;5156242;27;19919;-76
2022/05/10 05:01:22;;;;;;;;;;;11.00;99.90;;;;;;5155439;27;19914;-76
2022/05/10 05:03:48;;;;;;;;;;;11.00;99.90;;;;;;5155887;27;20048;-76
2022/05/10 05:06:14;;;;;;;;;;;11.10;99.90;;;;;;5155391;27;19915;-76
2022/05/10 05:08:40;;;;;;;;;;;11.10;99.90;;;;;;5156091;27;19907;-76
2022/05/10 05:11:05;;;;;;;;;;;11.10;99.90;;;;;;5156032;27;19907;-76
2022/05/10 05:13:31;;;;;;;;;;;11.20;99.90;;;;;;5136877;27;19908;-76
2022/05/10 05:15:56;;;;;;;;;;;11.20;99.90;;;;;;5155883;27;20432;-76
2022/05/10 05:18:22;;;;;;;;;;;11.20;99.90;;;;;;5155427;27;19915;-76
2022/05/10 05:20:48;;;;;;;;;;;11.20;99.90;;;;;;5155842;27;19957;-76
2022/05/10 05:23:14;;;;;;;;;;;11.30;99.90;;;;;;5155678;27;19943;-76
2022/05/10 05:25:41;;;;;;;;;;;11.40;99.90;;;;;;5155407;27;19942;-76
2022/05/10 05:28:07;;;;;;;;;;;11.30;99.90;;;;;;5155520;27;19911;-76
2022/05/10 05:30:33;;;;;;;;;;;11.40;99.90;;;;;;5154767;27;20003;-76
2022/05/10 05:32:59;;;;;;;;;;;11.40;99.90;;;;;;5155009;27;19947;-76
2022/05/10 05:35:24;;;;;;;;;;;11.40;99.90;;;;;;5154301;27;20017;-76
2022/05/10 05:37:51;;;;;;;;;;;11.40;99.90;;;;;;5155079;27;19923;-76
2022/05/10 05:40:17;;;;;;;;;;;11.40;99.90;;;;;;5154274;27;20279;-76
2022/05/10 05:42:43;;;;;;;;;;;11.40;99.90;;;;;;5154637;27;19907;-76
2022/05/10 05:45:10;;;;;;;;;;;11.50;99.90;;;;;;5155128;27;20363;-76
2022/05/10 05:47:36;;;;;;;;;;;11.50;99.90;;;;;;5154402;27;19915;-76
2022/05/10 05:50:02;;;;;;;;;;;11.50;99.90;;;;;;5155197;27;19967;-77
2022/05/10 05:52:28;;;;;;;;;;;11.50;99.90;;;;;;5154528;27;20363;-76
2022/05/10 05:54:53;;;;;;;;;;;11.50;99.90;;;;;;5154897;27;19907;-76
2022/05/10 05:57:19;;;;;;;;;;;11.50;99.90;;;;;;5154003;27;19907;-76
2022/05/10 05:59:45;;;;;;;;;;;11.50;99.90;;;;;;5154641;27;20379;-76
2022/05/10 06:02:12;;;;;;;;;;;11.70;99.90;;;;;;5154931;27;19907;-76
2022/05/10 06:04:38;;;;;;;;;;;11.80;99.90;;;;;;5154391;27;19903;-76
2022/05/10 06:07:03;;;;;;;;;;;11.90;99.90;;;;;;5154720;27;20245;-76
2022/05/10 06:09:29;;;;;;;;;;;12.00;99.90;;;;;;5154061;27;19907;-76
2022/05/10 06:11:54;;;;;;;;;;;12.10;99.90;;;;;;5154833;27;20379;-77
2022/05/10 06:14:20;;;;;;;;;;;12.00;99.90;;;;;;5154205;27;19907;-76
2022/05/10 06:16:46;;;;;;;;;;;12.20;99.90;;;;;;5155156;27;19911;-76
2022/05/10 06:19:12;;;;;;;;;;;12.30;99.90;;;;;;5154477;27;19919;-77
2022/05/10 06:21:39;;;;;;;;;;;12.50;99.90;;;;;;5153984;27;19911;-76
2022/05/10 06:24:05;;;;;;;;;;;12.60;99.90;;;;;;5154211;27;20236;-76
2022/05/10 06:26:30;;;;;;;;;;;12.80;99.90;;;;;;5153929;27;19956;-74
2022/05/10 06:28:56;;;;;;;;;;;12.90;99.90;;;;;;5152902;27;20010;-75
2022/05/10 06:31:21;;;;;;;;;;;13.20;99.90;;;;;;5153307;27;19915;-74
2022/05/10 06:33:47;;;;;;;;;;;13.10;99.90;;;;;;5135982;27;19908;-75
2022/05/10 06:36:12;;;;;;;;;;;13.10;99.90;;;;;;5154128;27;19907;-75
2022/05/10 06:38:40;;;;;;;;;;;13.00;99.90;;;;;;5153871;27;19915;-74
2022/05/10 06:41:06;;;;;;;;;;;13.10;99.90;;;;;;5154523;27;19907;-75
2022/05/10 06:43:36;;;;;;;;;;;13.20;99.90;;;;;;5153857;27;19907;-75
2022/05/10 06:46:07;;;;;;;;;;;13.30;99.90;;;;;;5136224;27;20390;-75
2022/05/10 06:48:33;;;;;;;;;;;13.40;99.90;;;;;;5153546;27;19914;-75
2022/05/10 06:50:59;;;;;;;;;;;13.60;99.90;;;;;;5154407;27;19907;-74
2022/05/10 06:53:25;;;;;;;;;;;13.60;99.90;;;;;;5153586;27;19930;-75
2022/05/10 06:55:51;;;;;;;;;;;13.70;99.90;;;;;;5154175;27;19916;-75
2022/05/10 06:58:17;;;;;;;;;;;13.80;99.90;;;;;;5154449;27;19923;-75
2022/05/10 07:00:42;;;;;;;;;;;13.90;99.90;;;;;;5154219;27;19907;-75
2022/05/10 07:03:10;;;;;;;;;;;14.10;99.90;;;;;;5153972;27;19913;-75
2022/05/10 07:05:36;;;;;;;;;;;14.10;99.90;;;;;;5152994;27;19922;-75
2022/05/10 07:08:01;;;;;;;;;;;14.20;99.90;;;;;;5153296;27;20352;-75
2022/05/10 07:10:27;;;;;;;;;;;14.20;99.90;;;;;;5153066;27;19956;-75
2022/05/10 07:12:54;;;;;;;;;;;14.20;99.90;;;;;;5154026;27;19907;-74
2022/05/10 07:15:20;;;;;;;;;;;14.00;99.90;;;;;;5153967;27;19914;-75
2022/05/10 07:17:46;;;;;;;;;;;13.80;99.90;;;;;;5153113;27;19923;-75
2022/05/10 07:20:12;;;;;;;;;;;13.70;99.90;;;;;;5154116;27;20362;-76
2022/05/10 07:22:38;;;;;;;;;;;13.80;99.90;;;;;;5153168;27;19994;-75
2022/05/10 07:25:05;;;;;;;;;;;13.90;99.90;;;;;;5135499;27;19947;-76
2022/05/10 07:27:30;;;;;;;;;;;14.10;99.90;;;;;;5155584;27;19907;-75
2022/05/10 07:29:56;;;;;;;;;;;14.10;99.90;;;;;;5156652;27;19951;-76
2022/05/10 07:32:22;;;;;;;;;;;14.20;99.90;;;;;;5157801;27;19907;-76
2022/05/10 07:34:48;;;;;;;;;;;14.30;99.90;;;;;;5138882;27;19908;-76
2022/05/10 07:37:13;;;;;;;;;;;14.30;99.90;;;;;;5158240;27;19907;-76
2022/05/10 07:39:39;;;;;;;;;;;14.30;99.90;;;;;;5157381;27;19915;-76
2022/05/10 07:42:05;;;;;;;;;;;14.50;99.90;;;;;;5157205;27;19943;-76
2022/05/10 07:44:31;;;;;;;;;;;14.70;99.90;;;;;;5156800;27;19907;-76
2022/05/10 07:46:57;;;;;;;;;;;14.90;99.90;;;;;;5157284;27;19911;-76
2022/05/10 07:49:23;;;;;;;;;;;14.90;99.90;;;;;;5157634;27;19907;-76
2022/05/10 07:51:48;;;;;;;;;;;15.00;99.90;;;;;;5156912;27;20287;-76
2022/05/10 07:54:14;;;;;;;;;;;15.10;99.90;;;;;;5157275;27;19952;-76
2022/05/10 07:56:41;;;;;;;;;;;15.10;99.90;;;;;;5156726;27;19914;-76
2022/05/10 07:59:07;;;;;;;;;;;15.10;99.90;;;;;;5157472;27;19923;-76
2022/05/10 08:01:32;;;;;;;;;;;15.00;99.90;;;;;;5156872;27;19911;-76
2022/05/10 08:03:58;;;;;;;;;;;15.00;99.90;;;;;;5156714;27;20325;-76
2022/05/10 08:06:24;;;;;;;;;;;15.10;99.90;;;;;;5157155;27;19911;-76
2022/05/10 08:08:50;;;;;;;;;;;15.10;99.90;;;;;;5155907;27;20372;-76
2022/05/10 08:11:16;;;;;;;;;;;15.10;99.90;;;;;;5157015;27;20006;-76
2022/05/10 08:13:41;;;;;;;;;;;15.20;99.90;;;;;;5137866;27;19907;-76
2022/05/10 08:16:08;;;;;;;;;;;15.20;99.90;;;;;;5156671;27;19907;-76
2022/05/10 08:18:35;;;;;;;;;;;15.20;99.90;;;;;;5156305;27;19915;-76
2022/05/10 08:21:01;;;;;;;;;;;15.30;99.90;;;;;;5156677;27;20375;-76
2022/05/10 08:23:30;;;;;;;;;;;15.30;99.90;;;;;;5156811;27;19911;-76
2022/05/10 08:25:57;;;;;;;;;;;15.40;99.90;;;;;;5138240;27;19918;-76
2022/05/10 08:28:23;;;;;;;;;;;15.50;99.90;;;;;;5156722;27;20442;-76
2022/05/10 08:30:49;;;;;;;;;;;15.40;99.90;;;;;;5156199;27;19903;-76
2022/05/10 08:33:19;;;;;;;;;;;15.30;99.90;;;;;;5156586;27;19915;-76
2022/05/10 08:35:46;;;;;;;;;;;15.30;99.90;;;;;;5155831;27;19972;-76
2022/05/10 08:38:12;;;;;;;;;;;15.50;99.90;;;;;;5156595;27;19915;-76
2022/05/10 08:40:41;;;;;;;;;;;15.50;99.90;;;;;;5155068;27;20284;-76
2022/05/10 08:43:09;;;;;;;;;;;15.60;99.90;;;;;;5156674;27;19911;-77
2022/05/10 08:45:38;;;;;;;;;;;15.70;99.90;;;;;;5155845;27;20347;-76
2022/05/10 08:48:03;;;;;;;;;;;15.70;99.90;;;;;;5156319;27;19952;-76
2022/05/10 08:50:29;;;;;;;;;;;15.80;99.90;;;;;;5156018;27;19907;-76
2022/05/10 08:52:55;;;;;;;;;;;15.80;99.90;;;;;;5156222;27;19908;-76
2022/05/10 08:55:23;;;;;;;;;;;15.90;99.90;;;;;;5156204;27;19914;-76
2022/05/10 08:57:50;;;;;;;;;;;15.50;99.90;;;;;;5155718;27;19954;-76
2022/05/10 09:00:26;;;;;;;;;;;15.30;99.90;;;;;;5156206;27;19918;-76
2022/05/10 09:02:54;;;;;;;;;;;15.10;99.90;;;;;;5137071;27;19960;-76
2022/05/10 09:05:26;;;;;;;;;;;15.10;99.90;;;;;;5155557;27;19907;-76
2022/05/10 09:07:56;;;;;;;;;;;15.20;99.90;;;;;;5155132;27;20039;-76
2022/05/10 09:10:31;;;;;;;;;;;15.40;99.90;;;;;;5156283;27;19907;-76
2022/05/10 09:13:08;;;;;;;;;;;15.50;99.90;;;;;;5155947;27;19918;-77
2022/05/10 09:15:39;;;;;;;;;;;15.50;99.90;;;;;;5155317;27;20356;-76
2022/05/10 09:18:17;;;;;;;;;;;15.50;99.90;;;;;;5155855;27;19934;-76
2022/05/10 09:20:51;;;;;;;;;;;15.60;99.90;;;;;;5155027;27;19912;-76
2022/05/10 09:23:39;;;;;;;;;;;15.70;99.90;;;;;;5155861;27;19911;-76
2022/05/10 09:26:05;;;;;;;;;;;15.80;99.90;;;;;;5155586;27;19907;-76
2022/05/10 09:28:56;;;;;;;;;;;15.80;99.90;;;;;;5155519;27;19915;-76
2022/05/10 09:36:54;;;;;;;;;;;16.30;99.90;;;;;;5152452;27;19910;-76
2022/05/10 09:39:23;;;;;;;;;;;16.50;99.90;;;;;;5154160;27;19914;-76
2022/05/10 09:41:52;;;;;;;;;;;16.50;99.90;;;;;;5155013;27;20006;-76
2022/05/10 09:44:28;;;;;;;;;;;16.40;99.90;;;;;;5155006;27;19911;-76
2022/05/10 09:47:14;;;;;;;;;;;16.40;99.90;;;;;;5154279;27;20042;-76
2022/05/10 09:49:40;;;;;;;;;;;16.30;99.90;;;;;;5152961;27;19907;-76
2022/05/10 09:52:06;;;;;;;;;;;16.30;99.90;;;;;;5154725;27;19972;-76
2022/05/10 09:54:32;;;;;;;;;;;16.30;99.90;;;;;;5154644;27;19912;-77
2022/05/10 09:56:58;;;;;;;;;;;16.30;99.90;;;;;;5154146;27;19964;-77
2022/05/10 09:59:28;;;;;;;;;;;16.50;99.90;;;;;;5154881;27;19926;-77
2022/05/10 10:01:56;;;;;;;;;;;16.50;99.90;;;;;;5154555;27;19922;-76
2022/05/10 10:04:27;;;;;;;;;;;16.50;99.90;;;;;;5154724;27;20014;-76
2022/05/10 10:07:04;;;;;;;;;;;16.40;99.90;;;;;;5154145;27;20348;-76
2022/05/10 10:09:31;;;;;;;;;;;16.40;99.90;;;;;;5154597;27;19914;-76
2022/05/10 10:11:57;;;;;;;;;;;16.40;99.90;;;;;;5154514;27;19911;-76
2022/05/10 10:14:33;;;;;;;;;;;16.40;99.90;;;;;;5154739;27;19908;-76
2022/05/10 10:17:02;;;;;;;;;;;16.60;99.90;;;;;;5154137;27;19994;-76
2022/05/10 10:19:43;;;;;;;;;;;16.70;99.90;;;;;;5154688;27;19915;-76
2022/05/10 10:22:10;;;;;;;;;;;16.60;99.90;;;;;;5135952;27;19907;-76
2022/05/10 10:24:42;;;;;;;;;;;16.60;99.90;;;;;;5118733;27;20015;-77
2022/05/10 10:27:16;;;;;;;;;;;16.70;99.90;;;;;;5154750;27;19955;-76
2022/05/10 10:29:47;;;;;;;;;;;16.70;99.90;;;;;;5154126;27;20018;-76
2022/05/10 10:32:13;;;;;;;;;;;16.70;99.90;;;;;;5136266;27;19930;-76
2022/05/10 10:34:50;;;;;;;;;;;16.60;99.90;;;;;;5153670;27;20356;-76
2022/05/10 10:37:20;;;;;;;;;;;16.60;99.90;;;;;;5153674;27;20071;-76
2022/05/10 10:39:56;;;;;;;;;;;16.60;99.90;;;;;;5153229;27;20248;-76
2022/05/10 10:42:28;;;;;;;;;;;16.60;99.90;;;;;;5154143;27;19914;-76
2022/05/10 10:44:56;;;;;;;;;;;16.90;99.90;;;;;;5135066;27;20275;-76
2022/05/10 10:47:27;;;;;;;;;;;17.00;99.90;;;;;;5154234;27;20364;-77
2022/05/10 10:49:55;;;;;;;;;;;17.10;99.90;;;;;;5153950;27;19907;-77
2022/05/10 10:52:23;;;;;;;;;;;17.20;99.90;;;;;;5154941;27;19907;-76
2022/05/10 10:54:48;;;;;;;;;;;17.20;99.90;;;;;;5135214;27;19994;-78
2022/05/10 10:57:20;;;;;;;;;;;17.00;99.90;;;;;;5153741;27;19935;-77
2022/05/10 10:59:48;;;;;;;;;;;16.60;99.90;;;;;;5153444;27;19915;-77
2022/05/10 11:02:32;;;;;;;;;;;16.70;99.90;;;;;;5154139;27;19907;-77
2022/05/10 11:04:57;;;;;;;;;;;16.80;99.90;;;;;;5156377;27;19911;-76
2022/05/10 11:07:26;;;;;;;;;;;16.90;99.90;;;;;;5157862;27;19917;-77
2022/05/10 11:10:15;;;;;;;;;;;17.00;99.90;;;;;;5138925;27;19962;-77
2022/05/10 11:13:01;;;;;;;;;;;17.20;99.90;;;;;;5149469;27;20037;-76
2022/05/10 11:15:45;;;;;;;;;;;17.00;99.90;;;;;;5137318;27;19915;-77
2022/05/10 11:18:25;;;;;;;;;;;17.10;99.90;;;;;;5134923;27;19927;-76
2022/05/10 11:21:03;;;;;;;;;;;17.10;99.90;;;;;;5139834;27;19914;-76
2022/05/10 11:23:33;;;;;;;;;;;17.10;99.90;;;;;;5152217;27;19972;-76
2022/05/10 11:26:04;;;;;;;;;;;17.20;99.90;;;;;;5140506;27;20352;-76
2022/05/10 11:28:41;;;;;;;;;;;17.30;99.90;;;;;;5145084;27;20435;-76
2022/05/10 11:31:15;;;;;;;;;;;17.40;99.90;;;;;;5156345;27;19922;-76
2022/05/10 11:33:59;;;;;;;;;;;17.40;99.90;;;;;;5140288;27;20071;-76
2022/05/10 11:36:44;;;;;;;;;;;17.40;99.90;;;;;;5149513;27;19911;-77
2022/05/10 11:39:19;;;;;;;;;;;17.50;99.90;;;;;;5150718;27;19922;-77
2022/05/10 11:41:44;;;;;;;;;;;17.50;99.90;;;;;;5138499;27;19908;-76
2022/05/10 11:44:29;;;;;;;;;;;17.40;99.90;;;;;;5141950;27;19967;-76
2022/05/10 11:47:06;;;;;;;;;;;17.20;99.90;;;;;;5144178;27;19957;-77
2022/05/10 11:49:50;;;;;;;;;;;17.30;99.90;;;;;;5153432;27;19949;-77
2022/05/10 11:52:38;;;;;;;;;;;17.40;99.90;;;;;;5143264;27;19908;-76
2022/05/10 11:55:04;;;;;;;;;;;17.30;99.90;;;;;;5134221;27;19907;-77
2022/05/10 11:57:31;;;;;;;;;;;17.10;99.90;;;;;;5153284;27;20310;-76
2022/05/10 12:00:16;;;;;;;;;;;17.00;99.90;;;;;;5135731;27;19923;-77
2022/05/10 12:02:43;;;;;;;;;;;17.10;99.90;;;;;;5146193;27;19976;-77
2022/05/10 12:05:20;;;;;;;;;;;17.50;99.90;;;;;;5142486;27;19953;-77
2022/05/10 12:07:46;;;;;;;;;;;17.70;99.90;;;;;;5151664;27;19918;-77
2022/05/10 12:10:21;;;;;;;;;;;17.90;99.90;;;;;;5155715;27;19955;-76
2022/05/10 12:12:47;;;;;;;;;;;18.00;99.90;;;;;;5155269;27;19994;-75
2022/05/10 12:21:22;;;;;;;;;;;18.30;99.90;;;;;;5156663;27;19913;-75
2022/05/10 12:24:06;;;;;;;;;;;18.50;99.90;;;;;;5156260;27;19911;-76
2022/05/10 12:26:31;;;;;;;;;;;18.50;99.90;;;;;;5156427;27;20417;-77
2022/05/10 12:28:57;;;;;;;;;;;18.60;99.90;;;;;;5156041;27;19907;-76
2022/05/10 12:31:22;;;;;;;;;;;18.60;99.90;;;;;;5156368;27;19907;-76
2022/05/10 12:34:08;;;;;;;;;;;18.50;99.90;;;;;;5155729;27;19907;-76
2022/05/10 12:36:35;;;;;;;;;;;18.60;99.90;;;;;;5136837;27;19907;-75
2022/05/10 12:39:20;;;;;;;;;;;18.70;99.90;;;;;;5155626;27;19976;-75
2022/05/10 12:41:56;;;;;;;;;;;18.50;99.90;;;;;;5155725;27;19942;-76
2022/05/10 12:44:36;;;;;;;;;;;18.20;99.90;;;;;;5142630;27;19998;-77
2022/05/10 12:47:05;;;;;;;;;;;17.80;99.90;;;;;;5140592;27;20378;-77
2022/05/10 12:49:45;;;;;;;;;;;17.50;99.90;;;;;;5155091;27;19908;-76
2022/05/10 12:52:39;;;;;;;;;;;17.40;99.90;;;;;;5156504;27;19993;-76
2022/05/10 12:55:09;;;;;;;;;;;17.50;99.90;;;;;;5155928;27;19919;-76
2022/05/10 12:57:44;;;;;;;;;;;17.70;99.90;;;;;;5155804;27;19978;-77
2022/05/10 13:00:14;;;;;;;;;;;17.70;99.90;;;;;;5155286;27;19998;-77
2022/05/10 13:02:44;;;;;;;;;;;17.90;99.90;;;;;;5155929;27;19914;-77
2022/05/10 13:05:14;;;;;;;;;;;17.90;99.90;;;;;;5154844;27;19914;-77
2022/05/10 13:07:40;;;;;;;;;;;18.00;99.90;;;;;;5155044;27;19907;-76
2022/05/10 13:10:14;;;;;;;;;;;18.00;99.90;;;;;;5155724;27;19993;-76
2022/05/10 13:12:44;;;;;;;;;;;18.00;99.90;;;;;;5155877;27;19915;-76
2022/05/10 13:15:13;;;;;;;;;;;17.90;99.90;;;;;;5154628;27;19998;-76
2022/05/10 13:17:42;;;;;;;;;;;18.10;99.90;;;;;;5155466;27;20241;-76
2022/05/10 13:20:10;;;;;;;;;;;18.20;99.90;;;;;;5136213;27;20024;-76
2022/05/10 13:22:37;;;;;;;;;;;18.30;99.90;;;;;;5155798;27;20356;-78
2022/05/10 13:25:06;;;;;;;;;;;18.30;99.90;;;;;;5155300;27;19911;-76
2022/05/10 13:27:33;;;;;;;;;;;18.40;99.90;;;;;;5155048;27;20352;-77
2022/05/10 13:30:05;;;;;;;;;;;18.40;99.90;;;;;;5154901;27;19907;-76
2022/05/10 13:32:36;;;;;;;;;;;18.40;99.90;;;;;;5155017;27;19911;-77
2022/05/10 13:35:13;;;;;;;;;;;18.40;99.90;;;;;;5154912;27;19913;-76
2022/05/10 13:38:05;;;;;;;;;;;18.30;99.90;;;;;;5154626;27;20001;-77
2022/05/10 13:40:42;;;;;;;;;;;18.20;99.90;;;;;;5150248;27;19923;-77
2022/05/10 13:43:23;;;;;;;;;;;18.10;99.90;;;;;;5154177;27;19904;-77
2022/05/10 13:45:50;;;;;;;;;;;18.00;99.90;;;;;;5153969;27;19907;-76
2022/05/10 13:48:18;;;;;;;;;;;18.00;99.90;;;;;;5154236;27;19946;-76
2022/05/10 13:50:45;;;;;;;;;;;17.90;99.90;;;;;;5154477;27;19997;-76
2022/05/10 13:53:25;;;;;;;;;;;17.90;99.90;;;;;;5153673;27;19907;-76
2022/05/10 13:55:52;;;;;;;;;;;17.90;99.90;;;;;;5153973;27;19946;-76
2022/05/10 13:58:27;;;;;;;;;;;17.90;99.90;;;;;;5154040;27;20010;-76
2022/05/10 14:00:54;;;;;;;;;;;17.90;99.90;;;;;;5153954;27;19930;-76
2022/05/10 14:03:21;;;;;;;;;;;18.00;99.90;;;;;;5135805;27;20248;-76
2022/05/10 14:05:47;;;;;;;;;;;18.00;99.90;;;;;;5154442;27;20028;-77
2022/05/10 14:08:19;;;;;;;;;;;18.10;99.90;;;;;;5135243;27;19921;-76
2022/05/10 14:10:57;;;;;;;;;;;18.20;99.90;;;;;;5154680;27;19952;-77
2022/05/10 14:13:23;;;;;;;;;;;18.20;99.90;;;;;;5154794;27;19914;-76
2022/05/10 14:15:48;;;;;;;;;;;18.20;99.90;;;;;;5154188;27;19994;-77
2022/05/10 14:18:27;;;;;;;;;;;18.20;99.90;;;;;;5153947;27;19919;-77
2022/05/10 14:20:53;;;;;;;;;;;18.20;99.90;;;;;;5153855;27;19929;-77
2022/05/10 14:23:20;;;;;;;;;;;18.30;99.90;;;;;;5154311;27;20312;-77
2022/05/10 14:25:56;;;;;;;;;;;18.30;99.90;;;;;;5154480;27;20002;-77
2022/05/10 14:28:24;;;;;;;;;;;18.30;99.90;;;;;;5154131;27;19914;-77
2022/05/10 14:30:53;;;;;;;;;;;18.50;99.90;;;;;;5154442;27;19911;-76
2022/05/10 14:33:19;;;;;;;;;;;18.50;99.90;;;;;;5154017;27;19908;-77
2022/05/10 14:36:03;;;;;;;;;;;18.60;99.90;;;;;;5153972;27;19976;-77
2022/05/10 14:38:29;;;;;;;;;;;18.70;99.90;;;;;;5152921;27;19938;-77
2022/05/10 14:40:55;;;;;;;;;;;18.60;99.90;;;;;;5153667;27;19907;-77
2022/05/10 14:43:26;;;;;;;;;;;18.60;99.90;;;;;;5154187;27;19960;-77
2022/05/10 14:45:52;;;;;;;;;;;18.60;99.90;;;;;;5153739;27;19921;-76